createdAt,value
2019-05-16T00:00:49.555Z,1014.57
2019-05-16T00:01:48.785Z,1014.55
2019-05-16T00:02:48.083Z,1014.55
2019-05-16T00:03:48.861Z,1014.53
2019-05-16T00:04:48.197Z,1014.54
2019-05-16T00:05:53.520Z,1014.46
2019-05-16T00:06:48.227Z,1014.52
2019-05-16T00:07:49.251Z,1014.47
2019-05-16T00:08:48.096Z,1014.43
2019-05-16T00:09:48.352Z,1014.39
2019-05-16T00:10:48.688Z,1014.40
2019-05-16T00:11:48.810Z,1014.37
2019-05-16T00:12:48.631Z,1014.31
2019-05-16T00:13:48.808Z,1014.31
2019-05-16T00:14:48.937Z,1014.28
2019-05-16T00:15:48.080Z,1014.23
2019-05-16T00:16:48.339Z,1014.24
2019-05-16T00:17:48.783Z,1014.25
2019-05-16T00:18:47.938Z,1014.26
2019-05-16T00:19:48.398Z,1014.20
2019-05-16T00:20:49.114Z,1014.16
2019-05-16T00:21:48.819Z,1014.19
2019-05-16T00:22:48.479Z,1014.21
2019-05-16T00:23:48.507Z,1014.13
2019-05-16T00:24:48.740Z,1014.09
2019-05-16T00:25:47.790Z,1014.13
2019-05-16T00:26:47.956Z,1014.09
2019-05-16T00:27:47.912Z,1014.07
2019-05-16T00:28:48.493Z,1014.07
2019-05-16T00:29:48.789Z,1014.03
2019-05-16T00:30:48.716Z,1013.97
2019-05-16T00:31:48.677Z,1013.97
2019-05-16T00:32:48.151Z,1013.97
2019-05-16T00:33:48.760Z,1014.02
2019-05-16T00:34:47.821Z,1014.03
2019-05-16T00:35:48.144Z,1013.94
2019-05-16T00:36:48.786Z,1013.96
2019-05-16T00:37:48.324Z,1014.01
2019-05-16T00:38:48.492Z,1013.87
2019-05-16T00:39:48.280Z,1013.93
2019-05-16T00:40:48.714Z,1013.79
2019-05-16T00:41:47.860Z,1013.78
2019-05-16T00:42:49.202Z,1013.80
2019-05-16T00:43:48.586Z,1013.87
2019-05-16T00:44:47.835Z,1013.82
2019-05-16T00:45:48.587Z,1013.83
2019-05-16T00:46:48.616Z,1013.80
2019-05-16T00:47:47.959Z,1013.83
2019-05-16T00:48:48.730Z,1013.82
2019-05-16T00:49:48.045Z,1013.76
2019-05-16T00:50:48.145Z,1013.77
2019-05-16T00:51:48.110Z,1013.75
2019-05-16T00:52:48.805Z,1013.69
2019-05-16T00:53:48.365Z,1013.62
2019-05-16T00:54:48.626Z,1013.62
2019-05-16T00:55:47.976Z,1013.58
2019-05-16T00:56:48.682Z,1013.56
2019-05-16T00:57:48.152Z,1013.52
2019-05-16T00:58:48.422Z,1013.53
2019-05-16T00:59:48.553Z,1013.49
2019-05-16T01:00:49.331Z,1013.46
2019-05-16T01:01:50.013Z,1013.47
2019-05-16T01:02:48.523Z,1013.40
2019-05-16T01:03:48.314Z,1013.42
2019-05-16T01:04:48.573Z,1013.36
2019-05-16T01:05:48.089Z,1013.33
2019-05-16T01:06:48.374Z,1013.33
2019-05-16T01:07:48.037Z,1013.32
2019-05-16T01:08:48.680Z,1013.23
2019-05-16T01:09:48.652Z,1013.22
2019-05-16T01:10:50.896Z,1013.23
2019-05-16T01:11:48.518Z,1013.20
2019-05-16T01:12:48.067Z,1013.17
2019-05-16T01:13:48.550Z,1013.13
2019-05-16T01:14:47.831Z,1013.16
2019-05-16T01:15:48.459Z,1013.15
2019-05-16T01:16:48.636Z,1013.13
2019-05-16T01:17:48.328Z,1013.08
2019-05-16T01:18:48.671Z,1013.14
2019-05-16T01:19:48.314Z,1013.00
2019-05-16T01:20:48.120Z,1013.07
2019-05-16T01:21:48.346Z,1013.07
2019-05-16T01:22:48.812Z,1013.04
2019-05-16T01:23:48.208Z,1012.98
2019-05-16T01:24:49.056Z,1013.02
2019-05-16T01:25:48.411Z,1012.99
2019-05-16T01:26:48.379Z,1013.02
2019-05-16T01:27:47.671Z,1012.94
2019-05-16T01:28:48.301Z,1012.91
2019-05-16T01:29:47.734Z,1012.97
2019-05-16T01:30:48.562Z,1012.95
2019-05-16T01:31:48.277Z,1012.92
2019-05-16T01:32:48.973Z,1012.78
2019-05-16T01:33:47.881Z,1012.87
2019-05-16T01:34:48.209Z,1012.82
2019-05-16T01:35:47.775Z,1012.88
2019-05-16T01:36:48.464Z,1012.81
2019-05-16T01:37:48.590Z,1012.85
2019-05-16T01:38:48.125Z,1012.78
2019-05-16T01:39:48.280Z,1012.78
2019-05-16T01:40:46.172Z,1012.80
2019-05-16T01:41:48.064Z,1012.75
2019-05-16T01:42:46.148Z,1012.81
2019-05-16T01:43:48.154Z,1012.78
2019-05-16T01:44:46.128Z,1012.75
2019-05-16T01:45:48.461Z,1012.67
2019-05-16T01:46:48.072Z,1012.66
2019-05-16T01:47:48.069Z,1012.61
2019-05-16T01:48:48.282Z,1012.60
2019-05-16T01:49:46.068Z,1012.66
2019-05-16T01:50:48.037Z,1012.62
2019-05-16T01:51:48.320Z,1012.60
2019-05-16T01:52:48.488Z,1012.56
2019-05-16T01:53:46.026Z,1012.57
2019-05-16T01:54:47.996Z,1012.54
2019-05-16T01:55:46.006Z,1012.53
2019-05-16T01:56:47.945Z,1012.53
2019-05-16T01:57:47.931Z,1012.50
2019-05-16T01:58:45.974Z,1012.43
2019-05-16T01:59:48.397Z,1012.50
2019-05-16T02:00:52.214Z,1012.37
2019-05-16T02:01:48.404Z,1012.41
2019-05-16T02:02:45.930Z,1012.35
2019-05-16T02:03:47.981Z,1012.29
2019-05-16T02:04:45.908Z,1012.29
2019-05-16T02:05:47.945Z,1012.28
2019-05-16T02:06:51.745Z,1012.24
2019-05-16T02:07:47.997Z,1012.18
2019-05-16T02:08:45.862Z,1012.22
2019-05-16T02:09:47.707Z,1012.19
2019-05-16T02:10:47.867Z,1012.25
2019-05-16T02:11:48.016Z,1012.19
2019-05-16T02:12:45.815Z,1012.20
2019-05-16T02:13:48.214Z,1012.22
2019-05-16T02:14:47.976Z,1012.24
2019-05-16T02:15:45.782Z,1012.26
2019-05-16T02:16:47.656Z,1012.20
2019-05-16T02:17:48.277Z,1012.22
2019-05-16T02:18:45.748Z,1012.17
2019-05-16T02:19:45.740Z,1012.14
2019-05-16T02:20:47.863Z,1012.15
2019-05-16T02:21:47.638Z,1012.09
2019-05-16T02:22:47.997Z,1012.06
2019-05-16T02:23:45.694Z,1012.07
2019-05-16T02:24:47.864Z,1012.09
2019-05-16T02:25:45.675Z,1012.13
2019-05-16T02:26:45.669Z,1012.07
2019-05-16T02:27:45.654Z,1012.10
2019-05-16T02:28:45.641Z,1012.07
2019-05-16T02:29:45.632Z,1012.07
2019-05-16T02:30:45.615Z,1012.04
2019-05-16T02:31:45.613Z,1012.10
2019-05-16T02:32:45.593Z,1012.07
2019-05-16T02:33:45.609Z,1012.10
2019-05-16T02:34:45.575Z,1012.02
2019-05-16T02:35:45.568Z,1012.10
2019-05-16T02:36:45.560Z,1012.04
2019-05-16T02:37:45.563Z,1011.97
2019-05-16T02:38:45.533Z,1011.98
2019-05-16T02:39:45.515Z,1011.97
2019-05-16T02:40:45.511Z,1011.92
2019-05-16T02:41:46.240Z,1011.94
2019-05-16T02:42:45.486Z,1011.99
2019-05-16T02:43:45.498Z,1011.95
2019-05-16T02:44:45.457Z,1011.92
2019-05-16T02:45:45.447Z,1011.92
2019-05-16T02:46:45.435Z,1011.92
2019-05-16T02:47:45.430Z,1011.88
2019-05-16T02:48:45.423Z,1011.88
2019-05-16T02:49:45.404Z,1011.93
2019-05-16T02:50:45.392Z,1011.81
2019-05-16T02:51:45.384Z,1011.83
2019-05-16T02:52:45.378Z,1011.76
2019-05-16T02:53:45.369Z,1011.85
2019-05-16T02:54:45.355Z,1011.88
2019-05-16T02:55:45.341Z,1011.74
2019-05-16T02:56:45.333Z,1011.79
2019-05-16T02:57:45.318Z,1011.74
2019-05-16T02:58:45.345Z,1011.73
2019-05-16T02:59:45.300Z,1011.78
2019-05-16T03:00:45.295Z,1011.76
2019-05-16T03:01:45.274Z,1011.78
2019-05-16T03:02:45.257Z,1011.78
2019-05-16T03:03:45.252Z,1011.75
2019-05-16T03:04:45.235Z,1011.73
2019-05-16T03:05:45.230Z,1011.78
2019-05-16T03:06:45.212Z,1011.72
2019-05-16T03:07:47.116Z,1011.76
2019-05-16T03:08:45.191Z,1011.70
2019-05-16T03:09:45.177Z,1011.69
2019-05-16T03:10:45.176Z,1011.63
2019-05-16T03:11:45.185Z,1011.65
2019-05-16T03:12:45.155Z,1011.62
2019-05-16T03:13:45.169Z,1011.69
2019-05-16T03:14:45.127Z,1011.57
2019-05-16T03:15:45.116Z,1011.67
2019-05-16T03:16:45.115Z,1011.59
2019-05-16T03:17:45.096Z,1011.59
2019-05-16T03:18:45.076Z,1011.59
2019-05-16T03:19:45.070Z,1011.58
2019-05-16T03:20:45.056Z,1011.58
2019-05-16T03:21:45.082Z,1011.54
2019-05-16T03:22:45.036Z,1011.54
2019-05-16T03:23:45.025Z,1011.53
2019-05-16T03:24:45.013Z,1011.48
2019-05-16T03:25:45.013Z,1011.50
2019-05-16T03:26:44.993Z,1011.42
2019-05-16T03:27:44.983Z,1011.48
2019-05-16T03:28:44.974Z,1011.44
2019-05-16T03:29:44.965Z,1011.41
2019-05-16T03:30:45.576Z,1011.40
2019-05-16T03:31:45.544Z,1011.51
2019-05-16T03:32:46.026Z,1011.43
2019-05-16T03:33:56.359Z,1011.42
2019-05-16T03:34:45.898Z,1011.37
2019-05-16T03:35:45.230Z,1011.40
2019-05-16T03:36:44.880Z,1011.41
2019-05-16T03:37:55.272Z,1011.41
2019-05-16T03:38:45.868Z,1011.38
2019-05-16T03:39:44.855Z,1011.40
2019-05-16T03:40:44.849Z,1011.35
2019-05-16T03:41:44.826Z,1011.35
2019-05-16T03:42:44.814Z,1011.38
2019-05-16T03:43:44.802Z,1011.33
2019-05-16T03:44:44.785Z,1011.33
2019-05-16T03:45:44.800Z,1011.33
2019-05-16T03:46:44.765Z,1011.34
2019-05-16T03:47:44.756Z,1011.33
2019-05-16T03:48:44.749Z,1011.36
2019-05-16T03:49:44.732Z,1011.31
2019-05-16T03:50:44.730Z,1011.31
2019-05-16T03:51:44.727Z,1011.33
2019-05-16T03:52:44.736Z,1011.29
2019-05-16T03:53:44.692Z,1011.25
2019-05-16T03:54:44.689Z,1011.27
2019-05-16T03:55:44.673Z,1011.23
2019-05-16T03:56:44.662Z,1011.21
2019-05-16T03:57:44.643Z,1011.18
2019-05-16T03:58:44.642Z,1011.22
2019-05-16T03:59:44.623Z,1011.26
2019-05-16T04:00:45.719Z,1011.14
2019-05-16T04:01:44.593Z,1011.24
2019-05-16T04:02:45.730Z,1011.20
2019-05-16T04:03:44.577Z,1011.20
2019-05-16T04:04:44.581Z,1011.24
2019-05-16T04:05:44.548Z,1011.16
2019-05-16T04:06:44.538Z,1011.19
2019-05-16T04:07:44.530Z,1011.10
2019-05-16T04:08:44.527Z,1011.11
2019-05-16T04:09:44.510Z,1011.18
2019-05-16T04:10:44.494Z,1011.19
2019-05-16T04:11:44.484Z,1011.09
2019-05-16T04:12:44.483Z,1011.13
2019-05-16T04:13:44.477Z,1011.19
2019-05-16T04:14:44.488Z,1011.21
2019-05-16T04:15:44.481Z,1011.05
2019-05-16T04:16:44.456Z,1011.12
2019-05-16T04:17:44.418Z,1011.12
2019-05-16T04:18:44.406Z,1011.17
2019-05-16T04:19:44.396Z,1011.13
2019-05-16T04:20:44.400Z,1011.10
2019-05-16T04:21:44.382Z,1011.09
2019-05-16T04:22:44.356Z,1011.12
2019-05-16T04:23:44.354Z,1011.00
2019-05-16T04:24:44.336Z,1011.03
2019-05-16T04:25:44.345Z,1010.96
2019-05-16T04:26:44.347Z,1011.01
2019-05-16T04:27:44.304Z,1010.94
2019-05-16T04:28:44.295Z,1011.03
2019-05-16T04:29:44.285Z,1011.01
2019-05-16T04:30:44.273Z,1010.97
2019-05-16T04:31:44.260Z,1010.98
2019-05-16T04:32:44.246Z,1011.00
2019-05-16T04:33:44.235Z,1011.03
2019-05-16T04:34:51.414Z,1010.99
2019-05-16T04:36:25.897Z,1011.01
2019-05-16T04:37:26.480Z,1011.04
2019-05-16T04:39:07.526Z,1011.02
2019-05-16T04:40:07.501Z,1010.98
2019-05-16T04:41:07.498Z,1010.98
2019-05-16T04:42:10.815Z,1010.96
2019-05-16T04:43:07.471Z,1010.99
2019-05-16T04:44:11.266Z,1010.94
2019-05-16T04:45:07.449Z,1011.05
2019-05-16T04:46:07.442Z,1010.97
2019-05-16T04:47:10.738Z,1010.98
2019-05-16T04:48:07.438Z,1010.93
2019-05-16T04:49:10.939Z,1010.97
2019-05-16T04:50:07.392Z,1010.91
2019-05-16T04:51:10.428Z,1010.88
2019-05-16T04:52:07.369Z,1010.89
2019-05-16T04:53:07.364Z,1010.93
2019-05-16T04:54:10.396Z,1010.90
2019-05-16T04:55:07.337Z,1010.94
2019-05-16T04:56:10.855Z,1010.91
2019-05-16T04:57:07.321Z,1010.87
2019-05-16T04:58:10.439Z,1010.86
2019-05-16T04:59:07.302Z,1010.86
2019-05-16T05:00:10.862Z,1010.86
2019-05-16T05:01:07.269Z,1010.84
2019-05-16T05:02:07.263Z,1010.87
2019-05-16T05:03:07.245Z,1010.90
2019-05-16T05:04:11.786Z,1010.89
2019-05-16T05:05:08.229Z,1010.83
2019-05-16T05:06:07.218Z,1010.87
2019-05-16T05:07:07.204Z,1010.89
2019-05-16T05:08:07.200Z,1010.82
2019-05-16T05:09:07.184Z,1010.84
2019-05-16T05:10:07.177Z,1010.86
2019-05-16T05:11:07.184Z,1010.79
2019-05-16T05:12:07.172Z,1010.84
2019-05-16T05:13:07.135Z,1010.70
2019-05-16T05:14:07.129Z,1010.87
2019-05-16T05:15:07.116Z,1010.82
2019-05-16T05:16:07.127Z,1010.79
2019-05-16T05:17:07.088Z,1010.77
2019-05-16T05:18:07.083Z,1010.78
2019-05-16T05:19:07.078Z,1010.78
2019-05-16T05:20:07.062Z,1010.75
2019-05-16T05:21:07.064Z,1010.76
2019-05-16T05:22:07.039Z,1010.66
2019-05-16T05:23:07.028Z,1010.64
2019-05-16T05:24:07.022Z,1010.67
2019-05-16T05:25:07.005Z,1010.66
2019-05-16T05:26:07.023Z,1010.67
2019-05-16T05:27:06.996Z,1010.65
2019-05-16T05:28:06.975Z,1010.56
2019-05-16T05:29:06.953Z,1010.55
2019-05-16T05:30:06.947Z,1010.55
2019-05-16T05:31:06.988Z,1010.55
2019-05-16T05:32:06.942Z,1010.56
2019-05-16T05:33:06.917Z,1010.56
2019-05-16T05:34:06.904Z,1010.57
2019-05-16T05:35:06.911Z,1010.58
2019-05-16T05:36:06.881Z,1010.67
2019-05-16T05:37:06.870Z,1010.64
2019-05-16T05:38:06.870Z,1010.69
2019-05-16T05:39:11.944Z,1010.69
2019-05-16T05:40:07.831Z,1010.70
2019-05-16T05:41:06.826Z,1010.75
2019-05-16T05:42:06.826Z,1010.75
2019-05-16T05:43:06.817Z,1010.78
2019-05-16T05:44:06.812Z,1010.78
2019-05-16T05:45:06.792Z,1010.73
2019-05-16T05:46:06.788Z,1010.72
2019-05-16T05:47:06.773Z,1010.74
2019-05-16T05:48:06.753Z,1010.70
2019-05-16T05:49:06.758Z,1010.68
2019-05-16T05:50:06.742Z,1010.61
2019-05-16T05:51:06.724Z,1010.66
2019-05-16T05:52:06.717Z,1010.67
2019-05-16T05:53:06.738Z,1010.67
2019-05-16T05:54:06.694Z,1010.69
2019-05-16T05:55:06.702Z,1010.70
2019-05-16T05:56:06.682Z,1010.69
2019-05-16T05:57:06.670Z,1010.70
2019-05-16T05:58:06.646Z,1010.68
2019-05-16T05:59:06.636Z,1010.68
2019-05-16T06:00:06.638Z,1010.72
2019-05-16T06:01:06.619Z,1010.59
2019-05-16T06:02:06.601Z,1010.69
2019-05-16T06:03:06.590Z,1010.68
2019-05-16T06:04:06.573Z,1010.69
2019-05-16T06:05:06.575Z,1010.66
2019-05-16T06:06:06.564Z,1010.66
2019-05-16T06:07:06.543Z,1010.61
2019-05-16T06:08:06.538Z,1010.59
2019-05-16T06:09:06.524Z,1010.60
2019-05-16T06:10:06.516Z,1010.58
2019-05-16T06:11:06.502Z,1010.53
2019-05-16T06:12:07.674Z,1010.53
2019-05-16T06:13:06.482Z,1010.69
2019-05-16T06:14:06.468Z,1010.51
2019-05-16T06:15:09.040Z,1010.62
2019-05-16T06:16:07.445Z,1010.60
2019-05-16T06:17:06.440Z,1010.60
2019-05-16T06:18:06.436Z,1010.59
2019-05-16T06:19:06.424Z,1010.62
2019-05-16T06:20:06.428Z,1010.59
2019-05-16T06:21:06.395Z,1010.60
2019-05-16T06:22:06.379Z,1010.64
2019-05-16T06:23:06.376Z,1010.56
2019-05-16T06:24:06.389Z,1010.56
2019-05-16T06:25:06.346Z,1010.58
2019-05-16T06:26:06.376Z,1010.53
2019-05-16T06:27:06.333Z,1010.53
2019-05-16T06:28:06.312Z,1010.55
2019-05-16T06:29:06.308Z,1010.53
2019-05-16T06:30:06.296Z,1010.47
2019-05-16T06:31:06.316Z,1010.51
2019-05-16T06:32:06.274Z,1010.49
2019-05-16T06:33:06.258Z,1010.41
2019-05-16T06:34:09.098Z,1010.44
2019-05-16T06:35:09.556Z,1010.34
2019-05-16T06:36:06.244Z,1010.31
2019-05-16T06:37:06.208Z,1010.32
2019-05-16T06:38:06.205Z,1010.36
2019-05-16T06:39:06.211Z,1010.40
2019-05-16T06:40:06.190Z,1010.39
2019-05-16T06:41:06.202Z,1010.41
2019-05-16T06:42:06.162Z,1010.44
2019-05-16T06:43:06.160Z,1010.40
2019-05-16T06:44:06.148Z,1010.39
2019-05-16T06:45:06.124Z,1010.44
2019-05-16T06:46:06.134Z,1010.47
2019-05-16T06:47:17.061Z,1010.45
2019-05-16T06:48:07.094Z,1010.42
2019-05-16T06:49:06.084Z,1010.40
2019-05-16T06:50:06.082Z,1010.37
2019-05-16T06:51:06.078Z,1010.45
2019-05-16T06:52:06.060Z,1010.38
2019-05-16T06:53:06.038Z,1010.36
2019-05-16T06:54:06.035Z,1010.32
2019-05-16T06:55:06.012Z,1010.35
2019-05-16T06:56:06.020Z,1010.34
2019-05-16T06:57:06.019Z,1010.34
2019-05-16T06:58:06.002Z,1010.34
2019-05-16T06:59:05.969Z,1010.30
2019-05-16T07:00:05.965Z,1010.36
2019-05-16T07:01:05.957Z,1010.29
2019-05-16T07:02:05.948Z,1010.27
2019-05-16T07:03:05.940Z,1010.27
2019-05-16T07:04:05.915Z,1010.26
2019-05-16T07:05:05.914Z,1010.25
2019-05-16T07:06:05.922Z,1010.24
2019-05-16T07:07:05.910Z,1010.24
2019-05-16T07:08:05.889Z,1010.16
2019-05-16T07:09:05.879Z,1010.18
2019-05-16T07:10:05.854Z,1010.14
2019-05-16T07:11:05.846Z,1010.17
2019-05-16T07:12:05.825Z,1010.17
2019-05-16T07:13:05.824Z,1010.17
2019-05-16T07:14:05.818Z,1010.19
2019-05-16T07:15:05.836Z,1010.17
2019-05-16T07:16:05.791Z,1010.15
2019-05-16T07:17:05.786Z,1010.18
2019-05-16T07:18:05.766Z,1010.19
2019-05-16T07:19:05.756Z,1010.17
2019-05-16T07:20:05.746Z,1010.10
2019-05-16T07:21:05.732Z,1010.11
2019-05-16T07:22:05.723Z,1010.12
2019-05-16T07:23:05.722Z,1010.14
2019-05-16T07:24:05.702Z,1010.14
2019-05-16T07:25:05.695Z,1010.13
2019-05-16T07:26:05.670Z,1010.12
2019-05-16T07:27:08.653Z,1010.12
2019-05-16T07:28:05.667Z,1010.09
2019-05-16T07:29:05.651Z,1010.11
2019-05-16T07:30:05.634Z,1010.10
2019-05-16T07:31:14.825Z,1010.15
2019-05-16T07:32:06.620Z,1010.18
2019-05-16T07:33:05.605Z,1010.14
2019-05-16T07:34:05.603Z,1010.13
2019-05-16T07:35:05.603Z,1010.15
2019-05-16T07:36:05.565Z,1010.13
2019-05-16T07:37:05.568Z,1010.12
2019-05-16T07:38:05.558Z,1010.10
2019-05-16T07:39:05.545Z,1010.12
2019-05-16T07:40:16.031Z,1010.12
2019-05-16T07:41:06.541Z,1010.11
2019-05-16T07:42:05.500Z,1010.12
2019-05-16T07:43:05.494Z,1010.12
2019-05-16T07:44:05.489Z,1010.09
2019-05-16T07:45:05.477Z,1010.04
2019-05-16T07:46:05.468Z,1010.08
2019-05-16T07:47:05.453Z,1010.04
2019-05-16T07:48:05.442Z,1010.00
2019-05-16T07:49:05.424Z,1009.99
2019-05-16T07:50:05.418Z,1009.99
2019-05-16T07:51:05.425Z,1009.99
2019-05-16T07:52:05.394Z,1010.03
2019-05-16T07:53:05.379Z,1009.98
2019-05-16T07:54:05.385Z,1009.96
2019-05-16T07:55:05.391Z,1009.98
2019-05-16T07:56:05.346Z,1009.97
2019-05-16T07:57:16.062Z,1010.02
2019-05-16T07:58:06.333Z,1009.95
2019-05-16T07:59:05.319Z,1010.03
2019-05-16T08:00:05.329Z,1010.00
2019-05-16T08:01:11.533Z,1009.94
2019-05-16T08:02:06.309Z,1010.02
2019-05-16T08:03:05.277Z,1010.00
2019-05-16T08:04:05.261Z,1009.94
2019-05-16T08:05:05.258Z,1009.97
2019-05-16T08:06:05.263Z,1009.99
2019-05-16T08:07:05.861Z,1009.93
2019-05-16T08:08:05.217Z,1009.90
2019-05-16T08:09:07.667Z,1009.90
2019-05-16T08:10:05.213Z,1009.83
2019-05-16T08:11:05.195Z,1009.87
2019-05-16T08:12:05.991Z,1009.85
2019-05-16T08:13:05.164Z,1009.93
2019-05-16T08:14:05.153Z,1009.85
2019-05-16T08:15:05.138Z,1009.87
2019-05-16T08:16:05.142Z,1009.84
2019-05-16T08:17:05.135Z,1009.87
2019-05-16T08:18:05.116Z,1009.86
2019-05-16T08:19:05.101Z,1009.86
2019-05-16T08:20:05.127Z,1009.88
2019-05-16T08:21:05.075Z,1009.93
2019-05-16T08:22:05.101Z,1009.88
2019-05-16T08:23:05.079Z,1009.90
2019-05-16T08:24:07.702Z,1009.93
2019-05-16T08:25:05.025Z,1009.83
2019-05-16T08:26:05.045Z,1009.87
2019-05-16T08:27:05.002Z,1009.79
2019-05-16T08:28:05.009Z,1009.81
2019-05-16T08:29:04.988Z,1009.77
2019-05-16T08:30:04.972Z,1009.81
2019-05-16T08:31:04.986Z,1009.87
2019-05-16T08:32:05.003Z,1009.88
2019-05-16T08:33:04.943Z,1009.87
2019-05-16T08:34:04.933Z,1009.87
2019-05-16T08:35:04.927Z,1009.87
2019-05-16T08:36:08.126Z,1009.87
2019-05-16T08:37:05.915Z,1009.78
2019-05-16T08:38:04.895Z,1009.78
2019-05-16T08:39:04.877Z,1009.79
2019-05-16T08:40:04.867Z,1009.86
2019-05-16T08:42:08.514Z,1009.85
2019-05-16T08:43:05.849Z,1009.85
2019-05-16T08:44:05.113Z,1009.82
2019-05-16T08:45:04.938Z,1009.82
2019-05-16T08:46:04.920Z,1009.81
2019-05-16T08:47:06.542Z,1009.83
2019-05-16T08:48:04.793Z,1009.77
2019-05-16T08:49:04.975Z,1009.80
2019-05-16T08:50:04.844Z,1009.73
2019-05-16T08:51:05.747Z,1009.73
2019-05-16T08:52:04.737Z,1009.72
2019-05-16T08:53:04.848Z,1009.68
2019-05-16T08:54:04.742Z,1009.77
2019-05-16T08:55:04.705Z,1009.78
2019-05-16T08:56:04.687Z,1009.73
2019-05-16T08:58:05.668Z,1009.72
2019-05-16T08:59:04.732Z,1009.75
2019-05-16T09:00:04.696Z,1009.72
2019-05-16T09:01:04.695Z,1009.74
2019-05-16T09:02:04.659Z,1009.76
2019-05-16T09:03:04.609Z,1009.78
2019-05-16T09:04:04.619Z,1009.73
2019-05-16T09:05:05.938Z,1009.67
2019-05-16T09:06:04.624Z,1009.67
2019-05-16T09:07:04.621Z,1009.69
2019-05-16T09:08:04.607Z,1009.69
2019-05-16T09:09:22.906Z,1009.69
2019-05-16T09:10:10.263Z,1009.66
2019-05-16T09:10:34.259Z,1009.74
2019-05-16T09:11:27.099Z,1009.71
2019-05-16T09:12:07.852Z,1009.72
2019-05-16T09:13:07.156Z,1009.64
2019-05-16T09:14:04.504Z,1009.59
2019-05-16T09:15:07.392Z,1009.61
2019-05-16T09:16:04.492Z,1009.61
2019-05-16T09:17:07.322Z,1009.58
2019-05-16T09:18:07.309Z,1009.56
2019-05-16T09:18:30.613Z,1009.80
2019-05-16T09:19:04.481Z,1009.60
2019-05-16T09:20:07.129Z,1009.58
2019-05-16T09:21:07.097Z,1009.53
2019-05-16T09:22:07.148Z,1009.57
2019-05-16T09:23:07.221Z,1009.58
2019-05-16T09:24:06.207Z,1009.56
2019-05-16T09:25:04.388Z,1009.57
2019-05-16T09:26:07.175Z,1009.57
2019-05-16T09:27:10.750Z,1009.50
2019-05-16T09:28:07.528Z,1009.54
2019-05-16T09:29:04.335Z,1009.51
2019-05-16T09:30:04.330Z,1009.58
2019-05-16T09:31:06.840Z,1009.55
2019-05-16T09:32:12.736Z,1009.48
2019-05-16T09:33:07.046Z,1009.51
2019-05-16T09:34:04.273Z,1009.50
2019-05-16T09:35:04.271Z,1009.56
2019-05-16T09:36:04.254Z,1009.49
2019-05-16T09:37:04.253Z,1009.47
2019-05-16T09:38:04.247Z,1009.52
2019-05-16T09:39:04.224Z,1009.47
2019-05-16T09:40:06.387Z,1009.43
2019-05-16T09:41:04.204Z,1009.51
2019-05-16T09:42:04.204Z,1009.43
2019-05-16T09:43:04.192Z,1009.37
2019-05-16T09:44:04.166Z,1009.38
2019-05-16T09:45:04.153Z,1009.36
2019-05-16T09:46:04.308Z,1009.30
2019-05-16T09:47:04.137Z,1009.30
2019-05-16T09:48:04.141Z,1009.38
2019-05-16T09:49:16.757Z,1009.34
2019-05-16T09:50:06.890Z,1009.33
2019-05-16T09:51:06.481Z,1009.36
2019-05-16T09:52:04.091Z,1009.35
2019-05-16T09:53:04.073Z,1009.35
2019-05-16T09:54:04.068Z,1009.39
2019-05-16T09:55:04.052Z,1009.33
2019-05-16T09:56:04.032Z,1009.38
2019-05-16T09:57:06.399Z,1009.41
2019-05-16T09:58:07.120Z,1009.35
2019-05-16T09:59:04.022Z,1009.44
2019-05-16T10:00:03.990Z,1009.38
2019-05-16T10:01:03.982Z,1009.42
2019-05-16T10:02:03.972Z,1009.33
2019-05-16T10:03:03.978Z,1009.40
2019-05-16T10:04:06.511Z,1009.42
2019-05-16T10:05:03.997Z,1009.35
2019-05-16T10:06:03.945Z,1009.34
2019-05-16T10:07:06.493Z,1009.39
2019-05-16T10:08:06.703Z,1009.36
2019-05-16T10:09:06.314Z,1009.32
2019-05-16T10:10:06.393Z,1009.37
2019-05-16T10:11:06.189Z,1009.36
2019-05-16T10:12:11.471Z,1009.38
2019-05-16T10:13:06.675Z,1009.37
2019-05-16T10:14:03.836Z,1009.40
2019-05-16T10:15:03.826Z,1009.44
2019-05-16T10:16:03.830Z,1009.40
2019-05-16T10:17:03.811Z,1009.34
2019-05-16T10:18:03.793Z,1009.29
2019-05-16T10:19:03.785Z,1009.30
2019-05-16T10:20:03.776Z,1009.23
2019-05-16T10:21:03.772Z,1009.22
2019-05-16T10:22:03.757Z,1009.15
2019-05-16T10:23:03.814Z,1009.24
2019-05-16T10:24:03.726Z,1009.23
2019-05-16T10:25:03.726Z,1009.23
2019-05-16T10:26:03.717Z,1009.21
2019-05-16T10:27:03.710Z,1009.17
2019-05-16T10:28:03.728Z,1009.13
2019-05-16T10:29:03.670Z,1009.20
2019-05-16T10:30:03.665Z,1009.16
2019-05-16T10:31:03.682Z,1009.19
2019-05-16T10:32:03.638Z,1009.27
2019-05-16T10:33:03.648Z,1009.22
2019-05-16T10:34:03.639Z,1009.25
2019-05-16T10:35:03.621Z,1009.27
2019-05-16T10:36:03.630Z,1009.19
2019-05-16T10:37:03.599Z,1009.14
2019-05-16T10:38:03.581Z,1009.17
2019-05-16T10:39:03.602Z,1009.22
2019-05-16T10:40:03.553Z,1009.30
2019-05-16T10:41:03.540Z,1009.20
2019-05-16T10:42:03.540Z,1009.26
2019-05-16T10:43:03.530Z,1009.21
2019-05-16T10:44:03.529Z,1009.29
2019-05-16T10:45:03.533Z,1009.28
2019-05-16T10:46:03.507Z,1009.19
2019-05-16T10:47:03.487Z,1009.19
2019-05-16T10:48:03.485Z,1009.12
2019-05-16T10:49:03.470Z,1009.13
2019-05-16T10:50:03.499Z,1009.12
2019-05-16T10:51:03.448Z,1009.10
2019-05-16T10:52:03.425Z,1009.15
2019-05-16T10:53:25.680Z,1009.12
2019-05-16T10:54:17.214Z,1009.08
2019-05-16T10:55:04.504Z,1009.14
2019-05-16T10:56:03.442Z,1009.02
2019-05-16T10:57:03.500Z,1009.07
2019-05-16T10:58:03.383Z,1009.01
2019-05-16T10:59:37.725Z,1009.01
2019-05-16T11:00:13.048Z,1009.07
2019-05-16T11:01:19.400Z,1009.00
2019-05-16T11:02:04.397Z,1009.09
2019-05-16T11:03:03.399Z,1009.08
2019-05-16T11:04:03.292Z,1008.95
2019-05-16T11:05:22.496Z,1008.98
2019-05-16T11:06:08.388Z,1008.93
2019-05-16T11:07:04.300Z,1008.93
2019-05-16T11:08:03.582Z,1008.96
2019-05-16T11:09:03.239Z,1008.97
2019-05-16T11:10:03.960Z,1008.91
2019-05-16T11:11:03.228Z,1009.00
2019-05-16T11:12:03.203Z,1008.97
2019-05-16T11:13:03.205Z,1008.97
2019-05-16T11:14:03.216Z,1009.01
2019-05-16T11:15:03.231Z,1009.05
2019-05-16T11:16:03.181Z,1009.02
2019-05-16T11:17:03.175Z,1009.09
2019-05-16T11:18:03.165Z,1009.06
2019-05-16T11:19:14.352Z,1009.09
2019-05-16T11:20:04.163Z,1009.09
2019-05-16T11:21:03.440Z,1009.05
2019-05-16T11:22:03.097Z,1009.06
2019-05-16T11:23:03.111Z,1009.03
2019-05-16T11:24:03.111Z,1009.02
2019-05-16T11:25:17.495Z,1009.10
2019-05-16T11:26:04.048Z,1009.06
2019-05-16T11:27:03.049Z,1009.05
2019-05-16T11:28:03.021Z,1009.08
2019-05-16T11:29:03.025Z,1009.01
2019-05-16T11:30:03.011Z,1009.06
2019-05-16T11:31:03.990Z,1009.05
2019-05-16T11:32:02.997Z,1009.09
2019-05-16T11:33:02.973Z,1009.01
2019-05-16T11:34:03.038Z,1009.08
2019-05-16T11:35:02.992Z,1009.03
2019-05-16T11:36:02.928Z,1009.09
2019-05-16T11:37:02.928Z,1009.03
2019-05-16T11:38:02.912Z,1008.98
2019-05-16T11:39:02.913Z,1009.01
2019-05-16T11:40:02.893Z,1009.02
2019-05-16T11:41:02.890Z,1008.98
2019-05-16T11:42:02.885Z,1009.01
2019-05-16T11:43:10.098Z,1009.05
2019-05-16T11:44:06.421Z,1008.98
2019-05-16T11:45:02.879Z,1008.99
2019-05-16T11:46:02.827Z,1008.94
2019-05-16T11:47:02.888Z,1008.98
2019-05-16T11:48:02.808Z,1009.03
2019-05-16T11:49:02.820Z,1009.01
2019-05-16T11:50:02.773Z,1008.92
2019-05-16T11:51:02.782Z,1008.96
2019-05-16T11:52:02.759Z,1008.93
2019-05-16T11:53:02.757Z,1008.97
2019-05-16T11:54:02.733Z,1008.94
2019-05-16T11:55:02.718Z,1008.88
2019-05-16T11:56:02.720Z,1008.89
2019-05-16T11:57:02.704Z,1008.85
2019-05-16T11:58:02.705Z,1008.89
2019-05-16T11:59:02.680Z,1008.83
2019-05-16T12:00:02.675Z,1008.84
2019-05-16T12:01:02.663Z,1008.87
2019-05-16T12:02:02.657Z,1008.85
2019-05-16T12:03:02.651Z,1008.83
2019-05-16T12:04:02.640Z,1008.85
2019-05-16T12:05:02.605Z,1008.89
2019-05-16T12:06:02.632Z,1008.88
2019-05-16T12:07:02.586Z,1008.94